Time,TemperatureF,DewpointF,PressureIn,WindDirection,WindDirectionDegrees,WindSpeedMPH,WindSpeedGustMPH,Humidity,HourlyPrecipIn,Conditions,Clouds,dailyrainin,SoftwareType,DateUTC
2013-03-18 00:00:00,27.0,10.9,30.30,NE,44,0.0,0.0,50,0.00,,CLR,0.00,VWS V14.01,2013-03-18 04:00:00,
2013-03-18 00:05:00,26.9,11.2,30.29,North,359,0.0,0.0,51,0.00,,CLR,0.00,VWS V14.01,2013-03-18 04:05:00,
2013-03-18 00:10:00,26.8,11.1,30.29,NNE,25,0.0,0.0,51,0.00,,CLR,0.00,VWS V14.01,2013-03-18 04:10:00,
2013-03-18 00:15:00,26.7,10.6,30.29,NNE,21,0.0,4.3,50,0.00,,CLR,0.00,VWS V14.01,2013-03-18 04:15:00,
2013-03-18 00:20:00,26.8,10.7,30.30,North,359,0.0,0.0,50,0.00,,CLR,0.00,VWS V14.01,2013-03-18 04:20:00,
2013-03-18 00:25:00,26.6,10.9,30.29,NNW,336,0.0,1.4,51,0.00,,CLR,0.00,VWS V14.01,2013-03-18 04:25:00,
2013-03-18 00:30:00,26.5,11.3,30.29,North,2,0.0,0.0,52,0.00,,CLR,0.00,VWS V14.01,2013-03-18 04:30:00,
2013-03-18 00:35:00,26.3,11.1,30.29,NNW,329,0.0,1.4,52,0.00,,CLR,0.00,VWS V14.01,2013-03-18 04:35:00,
2013-03-18 00:40:00,26.3,10.6,30.30,North,359,0.0,0.0,51,0.00,,CLR,0.00,VWS V14.01,2013-03-18 04:40:00,
2013-03-18 00:45:00,26.3,10.2,30.30,North,359,0.0,1.4,50,0.00,,CLR,0.00,VWS V14.01,2013-03-18 04:45:00,
2013-03-18 00:50:00,26.3,11.1,30.30,NNE,22,0.0,5.7,52,0.00,,CLR,0.00,VWS V14.01,2013-03-18 04:50:00,
2013-03-18 00:55:00,26.2,11.4,30.30,NNE,21,0.0,1.4,53,0.00,,CLR,0.00,VWS V14.01,2013-03-18 04:55:00,
2013-03-18 01:00:00,26.0,10.4,30.31,North,359,1.4,4.3,51,0.00,,CLR,0.00,VWS V14.01,2013-03-18 05:00:00,
2013-03-18 01:05:00,25.9,10.7,30.31,NNW,339,0.0,4.3,52,0.00,,CLR,0.00,VWS V14.01,2013-03-18 05:05:00,
2013-03-18 01:10:00,25.7,11.4,30.31,NNW,338,2.8,2.8,54,0.00,,CLR,0.00,VWS V14.01,2013-03-18 05:10:00,
2013-03-18 01:15:00,25.6,10.9,30.31,North,359,0.0,5.7,53,0.00,,CLR,0.00,VWS V14.01,2013-03-18 05:15:00,
2013-03-18 01:20:00,25.7,10.1,30.31,NNE,17,0.0,0.0,51,0.00,,CLR,0.00,VWS V14.01,2013-03-18 05:20:00,
2013-03-18 01:25:00,25.7,10.5,30.31,NNE,17,0.0,1.4,52,0.00,,CLR,0.00,VWS V14.01,2013-03-18 05:25:00,
2013-03-18 01:30:00,25.4,11.5,30.31,North,359,0.0,0.0,55,0.00,,CLR,0.00,VWS V14.01,2013-03-18 05:30:00,
2013-03-18 01:35:00,25.3,11.4,30.32,North,349,0.0,0.0,55,0.00,,CLR,0.00,VWS V14.01,2013-03-18 05:35:00,
2013-03-18 01:40:00,25.3,10.6,30.32,North,350,0.0,2.8,53,0.00,,CLR,0.00,VWS V14.01,2013-03-18 05:40:00,
2013-03-18 01:45:00,25.2,11.7,30.32,North,353,0.0,1.4,56,0.00,,CLR,0.00,VWS V14.01,2013-03-18 05:45:00,
2013-03-18 01:50:00,25.0,11.5,30.31,NNW,344,0.0,4.3,56,0.00,,CLR,0.00,VWS V14.01,2013-03-18 05:50:00,
2013-03-18 01:55:00,25.0,10.3,30.32,North,352,0.0,0.0,53,0.00,,CLR,0.00,VWS V14.01,2013-03-18 05:55:00,
2013-03-18 02:00:00,25.0,10.7,30.32,North,353,0.0,1.4,54,0.00,,CLR,0.00,VWS V14.01,2013-03-18 06:00:00,
2013-03-18 02:05:00,24.8,12.1,30.32,North,357,2.8,2.8,58,0.00,,CLR,0.00,VWS V14.01,2013-03-18 06:05:00,
2013-03-18 02:10:00,24.7,10.4,30.33,North,359,0.0,0.0,54,0.00,,CLR,0.00,VWS V14.01,2013-03-18 06:10:00,
2013-03-18 02:15:00,24.7,10.4,30.32,North,359,4.3,4.3,54,0.00,,CLR,0.00,VWS V14.01,2013-03-18 06:15:00,
2013-03-18 02:20:00,24.8,10.5,30.32,NNW,339,0.0,8.5,54,0.00,,CLR,0.00,VWS V14.01,2013-03-18 06:20:00,
2013-03-18 02:25:00,24.8,10.1,30.33,NNE,21,0.0,7.1,53,0.00,,CLR,0.00,VWS V14.01,2013-03-18 06:25:00,
2013-03-18 02:30:00,24.8,10.1,30.32,North,349,0.0,2.8,53,0.00,,CLR,0.00,VWS V14.01,2013-03-18 06:30:00,
2013-03-18 02:35:00,25.0,10.3,30.32,NNE,14,4.3,7.1,53,0.00,,CLR,0.00,VWS V14.01,2013-03-18 06:35:00,
2013-03-18 02:40:00,25.0,9.4,30.32,NNW,335,0.0,0.0,51,0.00,,CLR,0.00,VWS V14.01,2013-03-18 06:40:00,
2013-03-18 02:45:00,25.1,10.0,30.33,East,91,0.0,2.8,52,0.00,,CLR,0.00,VWS V14.01,2013-03-18 06:45:00,
2013-03-18 02:50:00,25.0,10.3,30.33,NNE,22,7.1,8.5,53,0.00,,CLR,0.00,VWS V14.01,2013-03-18 06:50:00,
2013-03-18 02:55:00,25.0,10.3,30.33,NE,47,0.0,5.7,53,0.00,,CLR,0.00,VWS V14.01,2013-03-18 06:55:00,
2013-03-18 03:00:00,25.0,10.3,30.33,NNE,15,2.8,2.8,53,0.00,,CLR,0.00,VWS V14.01,2013-03-18 07:00:00,
2013-03-18 03:05:00,25.0,10.3,30.32,North,5,1.4,9.9,53,0.00,,CLR,0.00,VWS V14.01,2013-03-18 07:05:00,
2013-03-18 03:10:00,24.9,10.6,30.33,NNE,29,0.0,2.8,54,0.00,,CLR,0.00,VWS V14.01,2013-03-18 07:10:00,
2013-03-18 03:15:00,24.7,10.0,30.34,NNE,33,0.0,5.7,53,0.00,,CLR,0.00,VWS V14.01,2013-03-18 07:15:00,
2013-03-18 03:20:00,24.7,10.4,30.34,NNE,27,1.4,8.5,54,0.00,,CLR,0.00,VWS V14.01,2013-03-18 07:20:00,
2013-03-18 03:25:00,24.7,10.4,30.34,North,359,0.0,0.0,54,0.00,,CLR,0.00,VWS V14.01,2013-03-18 07:25:00,
2013-03-18 03:30:00,24.6,10.3,30.34,North,359,0.0,2.8,54,0.00,,CLR,0.00,VWS V14.01,2013-03-18 07:30:00,
2013-03-18 03:35:00,24.3,10.5,30.34,North,359,1.4,1.4,55,0.00,,CLR,0.00,VWS V14.01,2013-03-18 07:35:00,
2013-03-18 03:40:00,24.1,10.7,30.35,East,94,0.0,0.0,56,0.00,,CLR,0.00,VWS V14.01,2013-03-18 07:40:00,
2013-03-18 03:45:00,23.9,10.5,30.35,East,93,0.0,0.0,56,0.00,,CLR,0.00,VWS V14.01,2013-03-18 07:45:00,
2013-03-18 03:50:00,23.8,11.2,30.34,ENE,63,0.0,0.0,58,0.00,,CLR,0.00,VWS V14.01,2013-03-18 07:50:00,
2013-03-18 03:55:00,23.7,10.7,30.34,NNE,30,0.0,4.3,57,0.00,,CLR,0.00,VWS V14.01,2013-03-18 07:55:00,
2013-03-18 04:00:00,23.5,10.5,30.35,NNE,29,0.0,0.0,57,0.00,,CLR,0.00,VWS V14.01,2013-03-18 08:00:00,
2013-03-18 04:05:00,23.6,10.6,30.35,NNE,28,0.0,0.0,57,0.00,,CLR,0.00,VWS V14.01,2013-03-18 08:05:00,
2013-03-18 04:10:00,23.4,10.8,30.35,NNE,28,0.0,1.4,58,0.00,,CLR,0.00,VWS V14.01,2013-03-18 08:10:00,
2013-03-18 04:15:00,23.3,10.7,30.35,NE,53,0.0,2.8,58,0.00,,CLR,0.00,VWS V14.01,2013-03-18 08:15:00,
2013-03-18 04:20:00,23.1,10.5,30.36,NE,51,0.0,0.0,58,0.00,,CLR,0.00,VWS V14.01,2013-03-18 08:20:00,
2013-03-18 04:25:00,23.0,10.4,30.36,NE,36,0.0,1.4,58,0.00,,CLR,0.00,VWS V14.01,2013-03-18 08:25:00,
2013-03-18 04:30:00,22.9,9.6,30.36,North,355,0.0,1.4,56,0.00,,CLR,0.00,VWS V14.01,2013-03-18 08:30:00,
2013-03-18 04:35:00,22.9,8.8,30.36,NNE,16,0.0,5.7,54,0.00,,CLR,0.00,VWS V14.01,2013-03-18 08:35:00,
2013-03-18 04:40:00,23.0,9.7,30.36,North,6,0.0,1.4,56,0.00,,CLR,0.00,VWS V14.01,2013-03-18 08:40:00,
2013-03-18 04:45:00,22.8,9.1,30.37,North,358,0.0,2.8,55,0.00,,CLR,0.00,VWS V14.01,2013-03-18 08:45:00,
2013-03-18 04:50:00,22.6,8.9,30.36,NE,48,0.0,0.0,55,0.00,,CLR,0.00,VWS V14.01,2013-03-18 08:50:00,
2013-03-18 04:55:00,22.7,8.6,30.37,NNE,27,0.0,1.4,54,0.00,,CLR,0.00,VWS V14.01,2013-03-18 08:55:00,
2013-03-18 05:00:00,22.5,8.4,30.37,NNE,20,0.0,8.5,54,0.00,,CLR,0.00,VWS V14.01,2013-03-18 09:00:00,
2013-03-18 05:05:00,22.5,8.4,30.37,NNE,21,0.0,4.3,54,0.00,,CLR,0.00,VWS V14.01,2013-03-18 09:05:00,
2013-03-18 05:10:00,22.5,8.4,30.37,NNE,27,0.0,0.0,54,0.00,,CLR,0.00,VWS V14.01,2013-03-18 09:10:00,
2013-03-18 05:15:00,22.3,8.2,30.37,North,7,1.4,4.3,54,0.00,,CLR,0.00,VWS V14.01,2013-03-18 09:15:00,
2013-03-18 05:20:00,22.2,8.5,30.38,ENE,78,0.0,7.1,55,0.00,,CLR,0.00,VWS V14.01,2013-03-18 09:20:00,
2013-03-18 05:25:00,22.2,7.7,30.37,NE,51,0.0,2.8,53,0.00,,CLR,0.00,VWS V14.01,2013-03-18 09:25:00,
2013-03-18 05:30:00,22.2,8.1,30.37,North,2,0.0,0.0,54,0.00,,CLR,0.00,VWS V14.01,2013-03-18 09:30:00,
2013-03-18 05:35:00,22.0,7.5,30.38,North,2,0.0,2.8,53,0.00,,CLR,0.00,VWS V14.01,2013-03-18 09:35:00,
2013-03-18 05:40:00,21.9,7.8,30.38,NE,49,0.0,5.7,54,0.00,,CLR,0.00,VWS V14.01,2013-03-18 09:40:00,
2013-03-18 05:45:00,21.9,7.8,30.38,NE,49,0.0,0.0,54,0.00,,CLR,0.00,VWS V14.01,2013-03-18 09:45:00,
2013-03-18 05:50:00,21.9,7.8,30.38,NE,49,0.0,0.0,54,0.00,,CLR,0.00,VWS V14.01,2013-03-18 09:50:00,
2013-03-18 05:55:00,21.7,7.2,30.38,NE,40,0.0,0.0,53,0.00,,CLR,0.00,VWS V14.01,2013-03-18 09:55:00,
2013-03-18 06:00:00,21.7,7.6,30.39,ENE,60,0.0,5.7,54,0.00,,CLR,0.00,VWS V14.01,2013-03-18 10:00:00,
2013-03-18 06:05:00,21.7,7.2,30.39,NE,43,0.0,1.4,53,0.00,,CLR,0.00,VWS V14.01,2013-03-18 10:05:00,
2013-03-18 06:10:00,21.7,6.8,30.40,ENE,61,0.0,0.0,52,0.00,,CLR,0.00,VWS V14.01,2013-03-18 10:10:00,
2013-03-18 06:15:00,21.6,6.7,30.39,NE,38,0.0,0.0,52,0.00,,CLR,0.00,VWS V14.01,2013-03-18 10:15:00,
2013-03-18 06:20:00,21.6,7.1,30.40,NNE,26,0.0,0.0,53,0.00,,CLR,0.00,VWS V14.01,2013-03-18 10:20:00,
2013-03-18 06:25:00,21.6,7.1,30.40,NNE,13,0.0,0.0,53,0.00,,CLR,0.00,VWS V14.01,2013-03-18 10:25:00,
2013-03-18 06:30:00,21.5,7.0,30.39,ENE,74,0.0,4.3,53,0.00,,CLR,0.00,VWS V14.01,2013-03-18 10:30:00,
2013-03-18 06:35:00,21.4,6.9,30.40,NNE,30,0.0,4.3,53,0.00,,CLR,0.00,VWS V14.01,2013-03-18 10:35:00,
2013-03-18 06:40:00,21.4,7.3,30.39,ENE,73,0.0,5.7,54,0.00,,CLR,0.00,VWS V14.01,2013-03-18 10:40:00,
2013-03-18 06:45:00,21.3,6.8,30.40,ENE,71,0.0,0.0,53,0.00,,CLR,0.00,VWS V14.01,2013-03-18 10:45:00,
2013-03-18 06:50:00,21.1,6.7,30.40,ENE,78,0.0,1.4,53,0.00,,CLR,0.00,VWS V14.01,2013-03-18 10:50:00,
2013-03-18 06:55:00,21.1,7.1,30.40,ENE,69,0.0,1.4,54,0.00,,CLR,0.00,VWS V14.01,2013-03-18 10:55:00,
2013-03-18 07:00:00,21.1,6.7,30.40,NE,45,2.8,4.3,53,0.00,,CLR,0.00,VWS V14.01,2013-03-18 11:00:00,
2013-03-18 07:05:00,21.0,7.0,30.40,NNE,27,0.0,1.4,54,0.00,,CLR,0.00,VWS V14.01,2013-03-18 11:05:00,
2013-03-18 07:10:00,21.0,7.0,30.41,NNE,24,0.0,0.0,54,0.00,,CLR,0.00,VWS V14.01,2013-03-18 11:10:00,
2013-03-18 07:15:00,21.0,7.0,30.41,NNE,13,0.0,1.4,54,0.00,,CLR,0.00,VWS V14.01,2013-03-18 11:15:00,
2013-03-18 07:20:00,21.1,6.7,30.41,ENE,67,0.0,2.8,53,0.00,,CLR,0.00,VWS V14.01,2013-03-18 11:20:00,
2013-03-18 07:25:00,21.1,6.7,30.42,ENE,64,0.0,1.4,53,0.00,,CLR,0.00,VWS V14.01,2013-03-18 11:25:00,
2013-03-18 07:30:00,21.3,6.8,30.41,NNE,27,0.0,1.4,53,0.00,,CLR,0.00,VWS V14.01,2013-03-18 11:30:00,
2013-03-18 07:35:00,21.6,6.7,30.41,ENE,69,0.0,1.4,52,0.00,,CLR,0.00,VWS V14.01,2013-03-18 11:35:00,
2013-03-18 07:40:00,21.7,6.8,30.41,ENE,77,0.0,11.4,52,0.00,,CLR,0.00,VWS V14.01,2013-03-18 11:40:00,
2013-03-18 07:45:00,21.7,6.4,30.40,East,82,0.0,11.4,51,0.00,,CLR,0.00,VWS V14.01,2013-03-18 11:45:00,
2013-03-18 07:50:00,21.7,6.4,30.41,North,9,0.0,2.8,51,0.00,,CLR,0.00,VWS V14.01,2013-03-18 11:50:00,
2013-03-18 07:55:00,21.7,6.4,30.41,NNE,23,0.0,5.7,51,0.00,,CLR,0.00,VWS V14.01,2013-03-18 11:55:00,
2013-03-18 08:00:00,21.9,6.6,30.41,NNE,31,0.0,0.0,51,0.00,,CLR,0.00,VWS V14.01,2013-03-18 12:00:00,
2013-03-18 08:05:00,22.2,6.8,30.41,NNE,30,0.0,2.8,51,0.00,,CLR,0.00,VWS V14.01,2013-03-18 12:05:00,
2013-03-18 08:10:00,22.2,6.4,30.41,NNE,26,5.7,5.7,50,0.00,,CLR,0.00,VWS V14.01,2013-03-18 12:10:00,
2013-03-18 08:15:00,22.4,6.6,30.41,ENE,60,0.0,2.8,50,0.00,,CLR,0.00,VWS V14.01,2013-03-18 12:15:00,
2013-03-18 08:20:00,22.5,5.8,30.41,ENE,63,4.3,9.9,48,0.00,,CLR,0.00,VWS V14.01,2013-03-18 12:20:00,
2013-03-18 08:25:00,22.6,5.9,30.41,North,359,0.0,4.3,48,0.00,,CLR,0.00,VWS V14.01,2013-03-18 12:25:00,
2013-03-18 08:30:00,22.8,6.1,30.42,NE,49,0.0,0.0,48,0.00,,CLR,0.00,VWS V14.01,2013-03-18 12:30:00,
2013-03-18 08:35:00,23.1,6.3,30.41,NNE,14,1.4,7.1,48,0.00,,CLR,0.00,VWS V14.01,2013-03-18 12:35:00,
2013-03-18 08:40:00,23.2,6.0,30.41,NNE,33,5.7,5.7,47,0.00,,CLR,0.00,VWS V14.01,2013-03-18 12:40:00,
2013-03-18 08:45:00,23.2,5.5,30.41,North,9,2.8,8.5,46,0.00,,CLR,0.00,VWS V14.01,2013-03-18 12:45:00,
2013-03-18 08:50:00,23.4,5.2,30.40,NE,38,0.0,2.8,45,0.00,,CLR,0.00,VWS V14.01,2013-03-18 12:50:00,
2013-03-18 08:55:00,23.6,5.9,30.41,NE,43,0.0,2.8,46,0.00,,CLR,0.00,VWS V14.01,2013-03-18 12:55:00,
2013-03-18 09:00:00,23.9,5.7,30.41,NW,316,0.0,0.0,45,0.00,,CLR,0.00,VWS V14.01,2013-03-18 13:00:00,
2013-03-18 09:05:00,24.3,6.0,30.41,NE,48,0.0,4.3,45,0.00,,CLR,0.00,VWS V14.01,2013-03-18 13:05:00,
2013-03-18 09:10:00,24.7,5.9,30.40,NNE,23,0.0,1.4,44,0.00,,CLR,0.00,VWS V14.01,2013-03-18 13:10:00,
2013-03-18 09:15:00,24.4,5.1,30.40,NE,43,4.3,4.3,43,0.00,,CLR,0.00,VWS V14.01,2013-03-18 13:15:00,
2013-03-18 09:20:00,24.3,5.5,30.41,North,8,0.0,2.8,44,0.00,,CLR,0.00,VWS V14.01,2013-03-18 13:20:00,
2013-03-18 09:25:00,24.3,5.0,30.41,WSW,258,1.4,2.8,43,0.00,,CLR,0.00,VWS V14.01,2013-03-18 13:25:00,
2013-03-18 09:30:00,24.5,5.2,30.41,North,2,4.3,4.3,43,0.00,,CLR,0.00,VWS V14.01,2013-03-18 13:30:00,
2013-03-18 09:35:00,24.7,5.4,30.41,North,2,0.0,1.4,43,0.00,,CLR,0.00,VWS V14.01,2013-03-18 13:35:00,
2013-03-18 09:40:00,25.0,4.6,30.40,NE,38,2.8,2.8,41,0.00,,CLR,0.00,VWS V14.01,2013-03-18 13:40:00,
2013-03-18 09:45:00,25.0,4.6,30.41,North,10,0.0,7.1,41,0.00,,CLR,0.00,VWS V14.01,2013-03-18 13:45:00,
2013-03-18 09:50:00,25.0,4.6,30.40,North,358,0.0,2.8,41,0.00,,CLR,0.00,VWS V14.01,2013-03-18 13:50:00,
2013-03-18 09:55:00,25.6,6.2,30.40,NNE,31,0.0,1.4,43,0.00,,CLR,0.00,VWS V14.01,2013-03-18 13:55:00,
2013-03-18 10:00:00,25.7,5.3,30.40,East,91,0.0,4.3,41,0.00,,CLR,0.00,VWS V14.01,2013-03-18 14:00:00,
2013-03-18 10:05:00,26.0,6.1,30.40,NE,52,2.8,4.3,42,0.00,,CLR,0.00,VWS V14.01,2013-03-18 14:05:00,
2013-03-18 10:10:00,26.1,4.5,30.41,NE,41,1.4,4.3,39,0.00,,CLR,0.00,VWS V14.01,2013-03-18 14:10:00,
2013-03-18 10:15:00,26.1,4.5,30.40,NNE,22,4.3,4.3,39,0.00,,CLR,0.00,VWS V14.01,2013-03-18 14:15:00,
2013-03-18 10:20:00,26.3,5.8,30.40,NNE,20,0.0,4.3,41,0.00,,CLR,0.00,VWS V14.01,2013-03-18 14:20:00,
2013-03-18 10:25:00,26.4,4.8,30.40,West,269,1.4,4.3,39,0.00,,CLR,0.00,VWS V14.01,2013-03-18 14:25:00,
2013-03-18 10:30:00,26.6,6.1,30.40,NNE,26,0.0,4.3,41,0.00,,CLR,0.00,VWS V14.01,2013-03-18 14:30:00,
2013-03-18 10:35:00,27.2,5.5,30.40,NNE,31,1.4,4.3,39,0.00,,CLR,0.00,VWS V14.01,2013-03-18 14:35:00,
2013-03-18 10:40:00,27.4,5.2,30.40,North,7,0.0,0.0,38,0.00,,CLR,0.00,VWS V14.01,2013-03-18 14:40:00,
2013-03-18 10:45:00,27.7,5.4,30.40,NNE,16,0.0,2.8,38,0.00,,CLR,0.00,VWS V14.01,2013-03-18 14:45:00,
2013-03-18 10:50:00,28.1,5.8,30.40,North,0,2.8,2.8,38,0.00,,CLR,0.00,VWS V14.01,2013-03-18 14:50:00,
2013-03-18 10:55:00,29.2,6.2,30.40,North,357,0.0,0.0,37,0.00,,CLR,0.00,VWS V14.01,2013-03-18 14:55:00,
2013-03-18 11:00:00,29.6,5.9,30.40,ESE,120,0.0,4.3,36,0.00,,CLR,0.00,VWS V14.01,2013-03-18 15:00:00,
2013-03-18 11:05:00,29.3,5.1,30.40,ENE,73,0.0,2.8,35,0.00,,CLR,0.00,VWS V14.01,2013-03-18 15:05:00,
2013-03-18 11:10:00,29.3,5.7,30.39,NNE,27,0.0,0.0,36,0.00,,CLR,0.00,VWS V14.01,2013-03-18 15:10:00,
2013-03-18 11:15:00,29.3,5.7,30.39,ENE,74,0.0,0.0,36,0.00,,CLR,0.00,VWS V14.01,2013-03-18 15:15:00,
2013-03-18 11:20:00,29.9,6.8,30.38,ESE,103,0.0,0.0,37,0.00,,CLR,0.00,VWS V14.01,2013-03-18 15:20:00,
2013-03-18 11:25:00,31.0,7.8,30.38,NNE,17,0.0,0.0,37,0.00,,CLR,0.00,VWS V14.01,2013-03-18 15:25:00,
2013-03-18 11:30:00,31.0,5.3,30.38,East,90,4.3,4.3,33,0.00,,CLR,0.00,VWS V14.01,2013-03-18 15:30:00,
2013-03-18 11:35:00,30.6,6.8,30.39,ENE,75,0.0,1.4,36,0.00,,CLR,0.00,VWS V14.01,2013-03-18 15:35:00,
2013-03-18 11:40:00,30.7,5.7,30.39,ESE,123,0.0,1.4,34,0.00,,CLR,0.00,VWS V14.01,2013-03-18 15:40:00,
2013-03-18 11:45:00,30.7,5.7,30.38,SSE,148,0.0,0.0,34,0.00,,CLR,0.00,VWS V14.01,2013-03-18 15:45:00,
2013-03-18 11:50:00,30.5,4.8,30.38,ESE,106,1.4,2.8,33,0.00,,CLR,0.00,VWS V14.01,2013-03-18 15:50:00,
2013-03-18 11:55:00,30.3,5.3,30.38,East,81,4.3,9.9,34,0.00,,CLR,0.00,VWS V14.01,2013-03-18 15:55:00,
2013-03-18 12:00:00,30.4,6.0,30.39,ESE,111,1.4,4.3,35,0.00,,CLR,0.00,VWS V14.01,2013-03-18 16:00:00,
2013-03-18 12:05:00,30.4,6.7,30.38,East,90,0.0,1.4,36,0.00,,CLR,0.00,VWS V14.01,2013-03-18 16:05:00,
2013-03-18 12:10:00,31.2,6.8,30.39,SSE,147,5.7,7.1,35,0.00,,CLR,0.00,VWS V14.01,2013-03-18 16:10:00,
2013-03-18 12:15:00,31.2,6.8,30.39,SE,134,1.4,8.5,35,0.00,,CLR,0.00,VWS V14.01,2013-03-18 16:15:00,
2013-03-18 12:20:00,30.8,5.1,30.38,SSE,166,2.8,2.8,33,0.00,,CLR,0.00,VWS V14.01,2013-03-18 16:20:00,
2013-03-18 12:25:00,30.9,5.8,30.38,South,183,0.0,1.4,34,0.00,,CLR,0.00,VWS V14.01,2013-03-18 16:25:00,
2013-03-18 12:30:00,31.4,6.9,30.38,East,90,1.4,4.3,35,0.00,,CLR,0.00,VWS V14.01,2013-03-18 16:30:00,
2013-03-18 12:35:00,31.3,5.6,30.38,ENE,65,0.0,7.1,33,0.00,,CLR,0.00,VWS V14.01,2013-03-18 16:35:00,
2013-03-18 12:40:00,31.8,7.9,30.38,SE,130,2.8,5.7,36,0.00,,CLR,0.00,VWS V14.01,2013-03-18 16:40:00,
2013-03-18 12:45:00,31.8,7.3,30.39,SE,144,0.0,1.4,35,0.00,,CLR,0.00,VWS V14.01,2013-03-18 16:45:00,
2013-03-18 12:50:00,31.7,7.8,30.38,SE,140,0.0,2.8,36,0.00,,CLR,0.00,VWS V14.01,2013-03-18 16:50:00,
2013-03-18 12:55:00,31.6,8.9,30.38,ESE,103,0.0,2.8,38,0.00,,CLR,0.00,VWS V14.01,2013-03-18 16:55:00,
2013-03-18 13:00:00,31.6,9.5,30.38,SE,141,1.4,4.3,39,0.00,,CLR,0.00,VWS V14.01,2013-03-18 17:00:00,
2013-03-18 13:05:00,31.4,9.3,30.38,SE,143,1.4,2.8,39,0.00,,FEW100,0.00,VWS V14.01,2013-03-18 17:05:00,
2013-03-18 13:10:00,31.8,9.7,30.38,East,92,0.0,1.4,39,0.00,,FEW100,0.00,VWS V14.01,2013-03-18 17:10:00,
2013-03-18 13:15:00,31.6,9.5,30.38,East,95,2.8,4.3,39,0.00,,FEW100,0.00,VWS V14.01,2013-03-18 17:15:00,
2013-03-18 13:20:00,31.5,8.8,30.37,ESE,103,1.4,4.3,38,0.00,,FEW100,0.00,VWS V14.01,2013-03-18 17:20:00,
2013-03-18 13:25:00,31.5,10.0,30.37,SSE,147,0.0,1.4,40,0.00,,FEW100,0.00,VWS V14.01,2013-03-18 17:25:00,
2013-03-18 13:30:00,31.8,9.7,30.37,East,79,0.0,1.4,39,0.00,,FEW100,0.00,VWS V14.01,2013-03-18 17:30:00,
2013-03-18 13:35:00,32.1,10.5,30.37,ESE,111,0.0,4.3,40,0.00,,FEW100,0.00,VWS V14.01,2013-03-18 17:35:00,
2013-03-18 13:40:00,32.1,10.5,30.37,ENE,66,1.4,5.7,40,0.00,,FEW100,0.00,VWS V14.01,2013-03-18 17:40:00,
2013-03-18 13:45:00,31.8,10.2,30.37,SE,127,0.0,0.0,40,0.00,,FEW100,0.00,VWS V14.01,2013-03-18 17:45:00,
2013-03-18 13:50:00,32.1,11.6,30.37,SE,135,0.0,4.3,42,0.00,,FEW100,0.00,VWS V14.01,2013-03-18 17:50:00,
2013-03-18 13:55:00,32.2,11.7,30.35,ESE,118,2.8,5.7,42,0.00,,FEW100,0.00,VWS V14.01,2013-03-18 17:55:00,
2013-03-18 14:00:00,31.8,12.4,30.35,SE,136,1.4,4.3,44,0.00,,FEW100,0.00,VWS V14.01,2013-03-18 18:00:00,
2013-03-18 14:05:00,31.9,11.4,30.34,East,89,0.0,7.1,42,0.00,,CLR,0.00,VWS V14.01,2013-03-18 18:05:00,
2013-03-18 14:10:00,32.2,12.8,30.34,ESE,111,0.0,7.1,44,0.00,,CLR,0.00,VWS V14.01,2013-03-18 18:10:00,
2013-03-18 14:15:00,32.1,12.1,30.33,ESE,122,5.7,5.7,43,0.00,,CLR,0.00,VWS V14.01,2013-03-18 18:15:00,
2013-03-18 14:20:00,32.2,11.2,30.33,NNE,18,1.4,2.8,41,0.00,,CLR,0.00,VWS V14.01,2013-03-18 18:20:00,
2013-03-18 14:25:00,32.1,9.9,30.33,ENE,61,2.8,4.3,39,0.00,,CLR,0.00,VWS V14.01,2013-03-18 18:25:00,
2013-03-18 14:30:00,32.0,10.4,30.32,NE,45,0.0,4.3,40,0.00,,CLR,0.00,VWS V14.01,2013-03-18 18:30:00,
2013-03-18 14:35:00,32.3,11.8,30.31,East,83,1.4,5.7,42,0.00,,CLR,0.00,VWS V14.01,2013-03-18 18:35:00,
2013-03-18 14:40:00,32.1,11.6,30.32,East,91,0.0,5.7,42,0.00,,CLR,0.00,VWS V14.01,2013-03-18 18:40:00,
2013-03-18 14:45:00,31.8,10.8,30.31,NNE,13,0.0,7.1,41,0.00,,CLR,0.00,VWS V14.01,2013-03-18 18:45:00,
2013-03-18 14:50:00,32.1,11.1,30.31,NNE,24,0.0,1.4,41,0.00,,CLR,0.00,VWS V14.01,2013-03-18 18:50:00,
2013-03-18 14:55:00,32.1,9.9,30.31,East,83,1.4,11.4,39,0.00,,CLR,0.00,VWS V14.01,2013-03-18 18:55:00,
2013-03-18 15:00:00,31.8,10.8,30.31,SE,133,0.0,5.7,41,0.00,,CLR,0.00,VWS V14.01,2013-03-18 19:00:00,
2013-03-18 15:05:00,31.8,10.8,30.31,East,83,0.0,7.1,41,0.00,,CLR,0.00,VWS V14.01,2013-03-18 19:05:00,
2013-03-18 15:10:00,31.8,10.8,30.31,ENE,68,0.0,1.4,41,0.00,,FEW120,0.00,VWS V14.01,2013-03-18 19:10:00,
2013-03-18 15:15:00,32.1,10.5,30.31,NE,55,1.4,1.4,40,0.00,,FEW120,0.00,VWS V14.01,2013-03-18 19:15:00,
2013-03-18 15:20:00,32.2,10.6,30.31,ENE,75,0.0,7.1,40,0.00,,FEW120,0.00,VWS V14.01,2013-03-18 19:20:00,
2013-03-18 15:25:00,32.2,11.7,30.31,East,89,0.0,2.8,42,0.00,,FEW120,0.00,VWS V14.01,2013-03-18 19:25:00,
2013-03-18 15:30:00,32.2,11.7,30.31,ENE,78,0.0,5.7,42,0.00,,FEW120,0.00,VWS V14.01,2013-03-18 19:30:00,
2013-03-18 15:35:00,32.2,11.7,30.31,ENE,59,2.8,7.1,42,0.00,,FEW120,0.00,VWS V14.01,2013-03-18 19:35:00,
2013-03-18 15:39:00,32.0,11.5,30.30,East,85,7.1,7.1,42,0.00,,FEW120,0.00,VWS V14.01,2013-03-18 19:39:00,
2013-03-18 15:44:00,31.8,11.9,30.29,East,87,0.0,5.7,43,0.00,,FEW120,0.00,VWS V14.01,2013-03-18 19:44:00,
2013-03-18 15:49:00,32.1,12.7,30.29,East,83,0.0,1.4,44,0.00,,FEW120,0.00,VWS V14.01,2013-03-18 19:49:00,
2013-03-18 15:54:00,32.2,13.3,30.28,East,80,1.4,4.3,45,0.00,,FEW120,0.00,VWS V14.01,2013-03-18 19:54:00,
2013-03-18 15:59:00,32.1,13.2,30.28,ENE,74,2.8,5.7,45,0.00,,FEW120,0.00,VWS V14.01,2013-03-18 19:59:00,
2013-03-18 16:04:00,31.9,13.5,30.28,East,84,0.0,5.7,46,0.00,,FEW110,0.00,VWS V14.01,2013-03-18 20:04:00,
2013-03-18 16:09:00,31.9,14.0,30.28,ENE,77,5.7,7.1,47,0.00,,FEW110,0.00,VWS V14.01,2013-03-18 20:09:00,
2013-03-18 16:14:00,31.9,14.4,30.27,East,79,4.3,8.5,48,0.00,,FEW110,0.00,VWS V14.01,2013-03-18 20:14:00,
2013-03-18 16:19:00,31.9,14.9,30.27,East,86,0.0,0.0,49,0.00,,FEW110,0.00,VWS V14.01,2013-03-18 20:19:00,
2013-03-18 16:24:00,31.9,14.9,30.26,ENE,72,1.4,8.5,49,0.00,,FEW110,0.00,VWS V14.01,2013-03-18 20:24:00,
2013-03-18 16:29:00,31.9,15.4,30.27,ENE,77,8.5,8.5,50,0.00,,FEW110,0.00,VWS V14.01,2013-03-18 20:29:00,
2013-03-18 16:34:00,31.6,15.1,30.27,ENE,67,0.0,0.0,50,0.00,,FEW110,0.00,VWS V14.01,2013-03-18 20:34:00,
2013-03-18 16:39:00,31.5,15.9,30.27,ENE,58,0.0,1.4,52,0.00,,FEW110,0.00,VWS V14.01,2013-03-18 20:39:00,
2013-03-18 16:44:00,31.6,16.5,30.27,East,80,0.0,1.4,53,0.00,,FEW110,0.00,VWS V14.01,2013-03-18 20:44:00,
2013-03-18 16:49:00,31.7,16.5,30.27,East,100,0.0,5.7,53,0.00,,FEW110,0.00,VWS V14.01,2013-03-18 20:49:00,
2013-03-18 16:54:00,31.4,16.7,30.27,ESE,105,2.8,5.7,54,0.00,,FEW110,0.00,VWS V14.01,2013-03-18 20:54:00,
2013-03-18 16:59:00,31.2,17.3,30.27,ENE,66,1.4,7.1,56,0.00,,FEW110,0.00,VWS V14.01,2013-03-18 20:59:00,
2013-03-18 17:04:00,31.1,17.2,30.28,ENE,69,1.4,2.8,56,0.00,,CLR,0.00,VWS V14.01,2013-03-18 21:04:00,
2013-03-18 17:09:00,31.1,18.5,30.28,East,96,1.4,2.8,59,0.00,,CLR,0.00,VWS V14.01,2013-03-18 21:09:00,
2013-03-18 17:14:00,30.9,18.7,30.27,ESE,116,0.0,1.4,60,0.00,,CLR,0.00,VWS V14.01,2013-03-18 21:14:00,
2013-03-18 17:19:00,30.8,19.0,30.27,East,100,0.0,2.8,61,0.00,,CLR,0.00,VWS V14.01,2013-03-18 21:19:00,
2013-03-18 17:24:00,30.6,18.8,30.27,ESE,114,0.0,7.1,61,0.00,,CLR,0.00,VWS V14.01,2013-03-18 21:24:00,
2013-03-18 17:29:00,30.7,19.2,30.27,ENE,69,0.0,1.4,62,0.00,,CLR,0.00,VWS V14.01,2013-03-18 21:29:00,
2013-03-18 17:34:00,30.6,19.1,30.26,ESE,122,0.0,4.3,62,0.00,,CLR,0.00,VWS V14.01,2013-03-18 21:34:00,
2013-03-18 17:39:00,30.5,19.4,30.26,East,91,1.4,2.8,63,0.00,,CLR,0.00,VWS V14.01,2013-03-18 21:39:00,
2013-03-18 17:44:00,30.5,19.8,30.26,East,81,4.3,11.4,64,0.00,,CLR,0.00,VWS V14.01,2013-03-18 21:44:00,
2013-03-18 17:49:00,30.6,19.9,30.26,East,89,0.0,1.4,64,0.00,,CLR,0.00,VWS V14.01,2013-03-18 21:49:00,
2013-03-18 17:54:00,30.6,20.2,30.26,ESE,116,2.8,4.3,65,0.00,,CLR,0.00,VWS V14.01,2013-03-18 21:54:00,
2013-03-18 17:59:00,30.6,20.2,30.26,ESE,104,5.7,8.5,65,0.00,,CLR,0.00,VWS V14.01,2013-03-18 21:59:00,
2013-03-18 18:04:00,30.5,20.1,30.26,ESE,108,2.8,12.8,65,0.00,,FEW095,0.00,VWS V14.01,2013-03-18 22:04:00,
2013-03-18 18:09:00,30.5,20.1,30.26,ESE,113,8.5,8.5,65,0.00,,FEW095,0.00,VWS V14.01,2013-03-18 22:09:00,
2013-03-18 18:14:00,30.3,20.3,30.26,ESE,103,4.3,5.7,66,0.00,,FEW095,0.00,VWS V14.01,2013-03-18 22:14:00,
2013-03-18 18:19:00,30.4,20.1,30.25,East,80,0.0,0.0,65,0.00,,FEW095,0.00,VWS V14.01,2013-03-18 22:19:00,
2013-03-18 18:24:00,30.3,20.0,30.25,East,91,0.0,2.8,65,0.00,,FEW095,0.00,VWS V14.01,2013-03-18 22:24:00,
2013-03-18 18:29:00,30.3,20.7,30.25,ESE,109,0.0,11.4,67,0.00,,FEW095,0.00,VWS V14.01,2013-03-18 22:29:00,
2013-03-18 18:34:00,30.5,20.9,30.26,ESE,113,1.4,2.8,67,0.00,,FEW095,0.00,VWS V14.01,2013-03-18 22:34:00,
2013-03-18 18:39:00,30.5,20.9,30.26,East,93,0.0,4.3,67,0.00,,FEW095,0.00,VWS V14.01,2013-03-18 22:39:00,
2013-03-18 18:44:00,30.5,21.2,30.26,East,89,0.0,0.0,68,0.00,,FEW095,0.00,VWS V14.01,2013-03-18 22:44:00,
2013-03-18 18:49:00,30.4,21.5,30.26,ESE,119,2.8,11.4,69,0.00,,FEW095,0.00,VWS V14.01,2013-03-18 22:49:00,
2013-03-18 18:54:00,30.4,21.5,30.26,ESE,116,0.0,7.1,69,0.00,,FEW095,0.00,VWS V14.01,2013-03-18 22:54:00,
2013-03-18 18:59:00,30.5,21.9,30.25,NE,37,0.0,2.8,70,0.00,,FEW095,0.00,VWS V14.01,2013-03-18 22:59:00,
2013-03-18 19:04:00,30.5,22.2,30.25,ENE,76,0.0,2.8,71,0.00,,FEW095,0.00,VWS V14.01,2013-03-18 23:04:00,
2013-03-18 19:09:00,30.2,22.9,30.25,ESE,112,7.1,11.4,74,0.00,,OVC040,0.00,VWS V14.01,2013-03-18 23:09:00,
2013-03-18 19:14:00,29.7,23.1,30.25,East,88,15.6,15.6,76,0.00,,OVC040,0.00,VWS V14.01,2013-03-18 23:14:00,
2013-03-18 19:19:00,29.3,23.9,30.24,East,99,4.3,4.3,80,0.00,,OVC040,0.00,VWS V14.01,2013-03-18 23:19:00,
2013-03-18 19:24:00,29.4,23.7,30.23,ENE,72,0.0,7.1,79,0.00,,OVC040,0.00,VWS V14.01,2013-03-18 23:24:00,
2013-03-18 19:29:00,29.5,23.8,30.23,East,80,7.1,8.5,79,0.00,,OVC040,0.00,VWS V14.01,2013-03-18 23:29:00,
2013-03-18 19:34:00,29.2,24.4,30.23,SE,136,12.8,12.8,82,0.00,,OVC040,0.00,VWS V14.01,2013-03-18 23:34:00,
2013-03-18 19:39:00,29.1,24.9,30.23,East,87,1.4,9.9,84,0.00,,OVC040,0.00,VWS V14.01,2013-03-18 23:39:00,
2013-03-18 19:44:00,29.1,25.2,30.23,ENE,68,1.4,4.3,85,0.00,,OVC040,0.00,VWS V14.01,2013-03-18 23:44:00,
2013-03-18 19:49:00,29.3,25.4,30.23,ENE,77,4.3,8.5,85,0.00,,OVC040,0.00,VWS V14.01,2013-03-18 23:49:00,
2013-03-18 19:54:00,29.3,25.6,30.23,SE,137,5.7,11.4,86,0.00,,OVC040,0.00,VWS V14.01,2013-03-18 23:54:00,
2013-03-18 19:59:00,29.3,25.9,30.23,East,91,4.3,12.8,87,0.00,,OVC040,0.00,VWS V14.01,2013-03-18 23:59:00,
2013-03-18 20:04:00,29.0,25.9,30.23,SSE,165,0.0,7.1,88,0.00,,OVC040,0.00,VWS V14.01,2013-03-19 00:04:00,
2013-03-18 20:09:00,28.9,26.3,30.23,ESE,106,8.5,9.9,90,0.00,,,0.00,VWS V14.01,2013-03-19 00:09:00,
2013-03-18 20:14:00,28.7,26.4,30.22,SE,136,5.7,11.4,91,0.00,,,0.00,VWS V14.01,2013-03-19 00:14:00,
2013-03-18 20:19:00,28.6,26.6,30.22,ENE,63,0.0,2.8,92,0.00,,,0.00,VWS V14.01,2013-03-19 00:19:00,
2013-03-18 20:24:00,28.5,26.7,30.22,SE,125,0.0,2.8,93,0.00,,,0.00,VWS V14.01,2013-03-19 00:24:00,
2013-03-18 20:29:00,28.5,27.0,30.22,ESE,102,4.3,11.4,94,0.00,,,0.00,VWS V14.01,2013-03-19 00:29:00,
2013-03-18 20:34:00,28.4,27.1,30.22,East,101,0.0,8.5,95,0.00,,,0.00,VWS V14.01,2013-03-19 00:34:00,
2013-03-18 20:39:00,28.4,27.1,30.21,ESE,106,0.0,2.8,95,0.00,,,0.00,VWS V14.01,2013-03-19 00:39:00,
2013-03-18 20:44:00,28.4,27.7,30.21,ESE,114,11.4,15.6,97,0.00,,,0.00,VWS V14.01,2013-03-19 00:44:00,
2013-03-18 20:49:00,28.4,27.7,30.21,SE,132,0.0,0.0,97,0.00,,,0.00,VWS V14.01,2013-03-19 00:49:00,
2013-03-18 20:54:00,28.4,27.7,30.21,East,100,0.0,7.1,97,0.00,,,0.00,VWS V14.01,2013-03-19 00:54:00,
2013-03-18 20:59:00,28.4,27.7,30.20,ESE,113,0.0,2.8,97,0.00,,,0.00,VWS V14.01,2013-03-19 00:59:00,
2013-03-18 21:04:00,28.4,27.9,30.20,ENE,72,1.4,8.5,98,0.00,,,0.00,VWS V14.01,2013-03-19 01:04:00,
2013-03-18 21:09:00,28.2,27.7,30.19,ENE,59,0.0,11.4,98,0.00,,,0.00,VWS V14.01,2013-03-19 01:09:00,
2013-03-18 21:14:00,28.2,27.7,30.19,East,96,0.0,7.1,98,0.00,,,0.00,VWS V14.01,2013-03-19 01:14:00,
2013-03-18 21:19:00,28.2,27.7,30.19,NNE,24,0.0,1.4,98,0.00,,,0.00,VWS V14.01,2013-03-19 01:19:00,
2013-03-18 21:24:00,28.1,27.6,30.18,ENE,77,0.0,1.4,98,0.00,,,0.00,VWS V14.01,2013-03-19 01:24:00,
2013-03-18 21:29:00,28.1,27.6,30.18,ESE,106,0.0,2.8,98,0.00,,,0.00,VWS V14.01,2013-03-19 01:29:00,
2013-03-18 21:34:00,28.1,27.6,30.18,ESE,115,0.0,4.3,98,0.00,,,0.00,VWS V14.01,2013-03-19 01:34:00,
2013-03-18 21:39:00,28.1,27.6,30.18,ESE,112,1.4,5.7,98,0.00,,,0.00,VWS V14.01,2013-03-19 01:39:00,
2013-03-18 21:44:00,28.1,27.6,30.17,ENE,66,0.0,5.7,98,0.00,,,0.00,VWS V14.01,2013-03-19 01:44:00,
2013-03-18 21:49:00,28.1,27.6,30.17,NE,44,7.1,12.8,98,0.00,,,0.00,VWS V14.01,2013-03-19 01:49:00,
2013-03-18 21:54:00,28.1,27.6,30.17,ESE,120,7.1,8.5,98,0.00,,,0.00,VWS V14.01,2013-03-19 01:54:00,
2013-03-18 21:59:00,28.1,27.6,30.17,East,82,5.7,9.9,98,0.00,,,0.00,VWS V14.01,2013-03-19 01:59:00,
2013-03-18 22:04:00,28.0,27.8,30.17,ESE,117,9.9,11.4,99,0.00,,,0.00,VWS V14.01,2013-03-19 02:04:00,
2013-03-18 22:09:00,28.0,28.0,30.17,NE,55,0.0,12.8,100,0.00,,,0.00,VWS V14.01,2013-03-19 02:09:00,
2013-03-18 22:14:00,28.0,28.0,30.16,ENE,77,1.4,9.9,100,0.00,,,0.00,VWS V14.01,2013-03-19 02:14:00,
2013-03-18 22:19:00,28.0,28.0,30.16,ENE,70,0.0,5.7,100,0.00,,,0.00,VWS V14.01,2013-03-19 02:19:00,
2013-03-18 22:24:00,28.0,28.0,30.16,NNE,23,0.0,4.3,100,0.00,,,0.00,VWS V14.01,2013-03-19 02:24:00,
2013-03-18 22:29:00,28.0,28.0,30.16,NE,42,2.8,8.5,100,0.00,,,0.00,VWS V14.01,2013-03-19 02:29:00,
2013-03-18 22:34:00,28.0,28.0,30.15,SE,133,2.8,7.1,100,0.00,,,0.00,VWS V14.01,2013-03-19 02:34:00,
2013-03-18 22:39:00,28.0,28.0,30.15,ESE,105,2.8,9.9,100,0.00,,,0.00,VWS V14.01,2013-03-19 02:39:00,
2013-03-18 22:44:00,28.0,28.0,30.14,ENE,74,1.4,2.8,100,0.00,,,0.00,VWS V14.01,2013-03-19 02:44:00,
2013-03-18 22:49:00,28.1,28.1,30.14,ESE,110,1.4,9.9,100,0.00,,,0.00,VWS V14.01,2013-03-19 02:49:00,
2013-03-18 22:54:00,28.1,28.1,30.14,NE,39,2.8,5.7,100,0.00,,,0.00,VWS V14.01,2013-03-19 02:54:00,
2013-03-18 22:59:00,28.1,28.1,30.14,ENE,72,2.8,15.6,100,0.00,,,0.00,VWS V14.01,2013-03-19 02:59:00,
2013-03-18 23:04:00,28.1,28.1,30.14,East,100,4.3,7.1,100,0.00,,,0.00,VWS V14.01,2013-03-19 03:04:00,
2013-03-18 23:09:00,28.1,28.1,30.13,ESE,113,4.3,15.6,100,0.00,,,0.00,VWS V14.01,2013-03-19 03:09:00,
2013-03-18 23:14:00,28.1,28.1,30.13,SE,138,0.0,4.3,100,0.00,,,0.00,VWS V14.01,2013-03-19 03:14:00,
2013-03-18 23:19:00,28.1,28.1,30.12,East,82,0.0,12.8,100,0.00,,,0.00,VWS V14.01,2013-03-19 03:19:00,
2013-03-18 23:24:00,28.1,28.1,30.11,ESE,123,0.0,7.1,100,0.00,,,0.00,VWS V14.01,2013-03-19 03:24:00,
2013-03-18 23:29:00,27.9,27.9,30.11,ESE,104,0.0,7.1,100,0.00,,,0.00,VWS V14.01,2013-03-19 03:29:00,
2013-03-18 23:34:00,28.0,28.0,30.11,NE,52,7.1,8.5,100,0.00,,,0.00,VWS V14.01,2013-03-19 03:34:00,
2013-03-18 23:39:00,27.9,27.9,30.11,North,1,0.0,1.4,100,0.00,,,0.00,VWS V14.01,2013-03-19 03:39:00,
2013-03-18 23:44:00,28.1,28.1,30.11,ENE,69,5.7,5.7,100,0.00,,,0.00,VWS V14.01,2013-03-19 03:44:00,
2013-03-18 23:49:00,28.0,28.0,30.10,ESE,108,7.1,8.5,100,0.00,,,0.00,VWS V14.01,2013-03-19 03:49:00,
2013-03-18 23:54:00,28.0,28.0,30.10,ESE,121,0.0,21.3,100,0.00,,,0.00,VWS V14.01,2013-03-19 03:54:00,
2013-03-18 23:59:00,28.1,28.1,30.10,NE,40,4.3,7.1,100,0.00,,,0.00,VWS V14.01,2013-03-19 03:59:00,